createdAt,value
2022-10-10T00:00:26.209Z,994.92
2022-10-10T00:01:26.285Z,994.98
2022-10-10T00:02:26.186Z,994.97
2022-10-10T00:03:26.179Z,994.88
2022-10-10T00:04:26.178Z,994.94
2022-10-10T00:05:26.160Z,994.89
2022-10-10T00:06:30.372Z,994.88
2022-10-10T00:07:28.142Z,994.87
2022-10-10T00:08:26.144Z,994.93
2022-10-10T00:09:26.130Z,994.92
2022-10-10T00:10:26.122Z,994.91
2022-10-10T00:11:26.143Z,994.92
2022-10-10T00:12:26.109Z,994.86
2022-10-10T00:13:26.097Z,994.90
2022-10-10T00:14:27.584Z,994.84
2022-10-10T00:15:26.077Z,994.87
2022-10-10T00:16:26.076Z,994.83
2022-10-10T00:17:26.075Z,994.86
2022-10-10T00:18:26.062Z,994.81
2022-10-10T00:19:26.049Z,994.85
2022-10-10T00:20:26.044Z,994.82
2022-10-10T00:21:26.041Z,994.85
2022-10-10T00:22:26.027Z,994.88
2022-10-10T00:23:26.679Z,994.88
2022-10-10T00:24:26.008Z,994.89
2022-10-10T00:25:26.000Z,994.85
2022-10-10T00:26:25.997Z,994.75
2022-10-10T00:27:25.981Z,994.80
2022-10-10T00:28:26.012Z,994.85
2022-10-10T00:30:25.934Z,994.82
2022-10-10T00:31:25.928Z,994.78
2022-10-10T00:32:25.935Z,994.78
2022-10-10T00:33:25.920Z,994.76
2022-10-10T00:34:25.906Z,994.81
2022-10-10T00:35:25.896Z,994.81
2022-10-10T00:36:25.912Z,994.81
2022-10-10T00:37:25.880Z,994.76
2022-10-10T00:38:26.976Z,994.76
2022-10-10T00:39:26.972Z,994.78
2022-10-10T00:40:26.959Z,994.71
2022-10-10T00:41:26.969Z,994.68
2022-10-10T00:42:26.947Z,994.66
2022-10-10T00:43:26.928Z,994.71
2022-10-10T00:44:26.929Z,994.74
2022-10-10T00:45:26.915Z,994.68
2022-10-10T00:46:26.907Z,994.66
2022-10-10T00:47:26.907Z,994.68
2022-10-10T00:48:26.907Z,994.69
2022-10-10T00:49:26.884Z,994.69
2022-10-10T00:50:26.873Z,994.67
2022-10-10T00:51:26.880Z,994.67
2022-10-10T00:52:26.855Z,994.69
2022-10-10T00:53:26.861Z,994.65
2022-10-10T00:54:26.842Z,994.58
2022-10-10T00:55:26.836Z,994.59
2022-10-10T00:56:26.841Z,994.59
2022-10-10T00:57:26.818Z,994.64
2022-10-10T00:58:26.822Z,994.55
2022-10-10T00:59:26.806Z,994.57
2022-10-10T01:00:26.809Z,994.52
2022-10-10T01:01:28.282Z,994.57
2022-10-10T01:02:26.783Z,994.50
2022-10-10T01:03:26.780Z,994.46
2022-10-10T01:04:27.332Z,994.52
2022-10-10T01:05:26.760Z,994.49
2022-10-10T01:06:26.755Z,994.43
2022-10-10T01:07:26.740Z,994.40
2022-10-10T01:08:26.740Z,994.38
2022-10-10T01:09:26.728Z,994.43
2022-10-10T01:10:26.721Z,994.44
2022-10-10T01:11:26.713Z,994.40
2022-10-10T01:12:26.725Z,994.37
2022-10-10T01:13:26.708Z,994.41
2022-10-10T01:14:26.698Z,994.43
2022-10-10T01:15:26.680Z,994.34
2022-10-10T01:16:26.671Z,994.38
2022-10-10T01:17:26.663Z,994.38
2022-10-10T01:18:26.665Z,994.44
2022-10-10T01:19:26.645Z,994.40
2022-10-10T01:20:26.655Z,994.34
2022-10-10T01:21:26.631Z,994.34
2022-10-10T01:22:26.623Z,994.36
2022-10-10T01:23:26.627Z,994.32
2022-10-10T01:24:26.607Z,994.29
2022-10-10T01:25:26.615Z,994.29
2022-10-10T01:26:26.605Z,994.33
2022-10-10T01:27:31.175Z,994.31
2022-10-10T01:28:27.596Z,994.31
2022-10-10T01:29:26.570Z,994.31
2022-10-10T01:30:26.563Z,994.24
2022-10-10T01:31:26.560Z,994.27
2022-10-10T01:32:26.547Z,994.25
2022-10-10T01:33:26.542Z,994.32
2022-10-10T01:34:26.535Z,994.21
2022-10-10T01:35:26.531Z,994.20
2022-10-10T01:36:26.511Z,994.20
2022-10-10T01:37:26.518Z,994.14
2022-10-10T01:38:26.503Z,994.10
2022-10-10T01:39:26.496Z,994.08
2022-10-10T01:40:26.495Z,994.12
2022-10-10T01:41:26.478Z,994.13
2022-10-10T01:42:26.477Z,994.05
2022-10-10T01:43:26.462Z,994.09
2022-10-10T01:44:26.456Z,994.09
2022-10-10T01:45:26.443Z,994.12
2022-10-10T01:46:26.459Z,994.08
2022-10-10T01:47:26.452Z,994.07
2022-10-10T01:48:26.434Z,994.07
2022-10-10T01:49:26.419Z,994.06
2022-10-10T01:50:26.407Z,994.06
2022-10-10T01:51:26.408Z,994.06
2022-10-10T01:52:26.435Z,994.06
2022-10-10T01:53:26.390Z,994.09
2022-10-10T01:54:26.376Z,994.09
2022-10-10T01:55:26.372Z,994.11
2022-10-10T01:56:26.362Z,994.05
2022-10-10T01:57:26.369Z,994.07
2022-10-10T01:58:26.349Z,993.99
2022-10-10T01:59:26.349Z,994.08
2022-10-10T02:00:26.624Z,994.00
2022-10-10T02:01:26.323Z,994.01
2022-10-10T02:02:27.224Z,994.02
2022-10-10T02:03:27.415Z,993.98
2022-10-10T02:04:26.300Z,994.00
2022-10-10T02:05:26.293Z,994.01
2022-10-10T02:06:26.285Z,994.01
2022-10-10T02:07:26.296Z,993.94
2022-10-10T02:08:26.272Z,993.92
2022-10-10T02:09:26.282Z,993.89
2022-10-10T02:10:26.252Z,993.95
2022-10-10T02:11:26.257Z,993.95
2022-10-10T02:12:26.255Z,993.93
2022-10-10T02:13:26.236Z,993.91
2022-10-10T02:14:26.331Z,993.93
2022-10-10T02:15:26.218Z,993.86
2022-10-10T02:16:26.212Z,993.86
2022-10-10T02:17:26.205Z,993.90
2022-10-10T02:18:26.189Z,993.84
2022-10-10T02:19:26.182Z,993.84
2022-10-10T02:20:26.174Z,993.83
2022-10-10T02:21:26.166Z,993.90
2022-10-10T02:22:26.186Z,993.83
2022-10-10T02:23:26.273Z,993.80
2022-10-10T02:24:26.145Z,993.82
2022-10-10T02:25:26.139Z,993.77
2022-10-10T02:26:26.126Z,993.82
2022-10-10T02:27:26.121Z,993.80
2022-10-10T02:28:26.182Z,993.84
2022-10-10T02:29:26.111Z,993.87
2022-10-10T02:30:26.111Z,993.84
2022-10-10T02:31:26.087Z,993.82
2022-10-10T02:32:26.083Z,993.83
2022-10-10T02:33:26.070Z,993.84
2022-10-10T02:34:26.065Z,993.90
2022-10-10T02:35:27.074Z,993.85
2022-10-10T02:36:26.049Z,993.83
2022-10-10T02:37:26.041Z,993.89
2022-10-10T02:38:26.078Z,993.85
2022-10-10T02:39:26.020Z,993.87
2022-10-10T02:40:26.026Z,993.83
2022-10-10T02:41:26.015Z,993.90
2022-10-10T02:42:25.998Z,993.86
2022-10-10T02:43:25.997Z,993.80
2022-10-10T02:44:25.982Z,993.81
2022-10-10T02:45:25.978Z,993.78
2022-10-10T02:46:25.987Z,993.82
2022-10-10T02:47:26.153Z,993.77
2022-10-10T02:48:25.953Z,993.79
2022-10-10T02:49:26.959Z,993.79
2022-10-10T02:50:25.962Z,993.72
2022-10-10T02:51:30.194Z,993.67
2022-10-10T02:52:27.077Z,993.67
2022-10-10T02:53:27.733Z,993.69
2022-10-10T02:54:25.909Z,993.68
2022-10-10T02:55:25.902Z,993.66
2022-10-10T02:56:25.898Z,993.67
2022-10-10T02:57:25.894Z,993.63
2022-10-10T02:58:25.890Z,993.62
2022-10-10T02:59:25.871Z,993.56
2022-10-10T03:00:25.910Z,993.55
2022-10-10T03:01:25.925Z,993.60
2022-10-10T03:02:25.865Z,993.61
2022-10-10T03:03:25.842Z,993.56
2022-10-10T03:04:25.837Z,993.56
2022-10-10T03:05:25.827Z,993.60
2022-10-10T03:06:25.817Z,993.54
2022-10-10T03:07:25.813Z,993.56
2022-10-10T03:08:25.795Z,993.53
2022-10-10T03:09:25.788Z,993.48
2022-10-10T03:10:26.796Z,993.50
2022-10-10T03:11:25.783Z,993.51
2022-10-10T03:12:25.771Z,993.51
2022-10-10T03:13:25.766Z,993.54
2022-10-10T03:14:25.760Z,993.41
2022-10-10T03:15:25.747Z,993.50
2022-10-10T03:16:25.740Z,993.42
2022-10-10T03:17:25.736Z,993.41
2022-10-10T03:18:25.728Z,993.47
2022-10-10T03:19:25.719Z,993.39
2022-10-10T03:20:25.706Z,993.47
2022-10-10T03:21:25.702Z,993.47
2022-10-10T03:22:25.697Z,993.49
2022-10-10T03:23:25.682Z,993.50
2022-10-10T03:24:25.681Z,993.49
2022-10-10T03:25:25.665Z,993.51
2022-10-10T03:26:25.669Z,993.55
2022-10-10T03:27:25.653Z,993.50
2022-10-10T03:28:25.675Z,993.49
2022-10-10T03:29:25.639Z,993.50
2022-10-10T03:30:25.639Z,993.56
2022-10-10T03:31:25.640Z,993.52
2022-10-10T03:32:25.611Z,993.56
2022-10-10T03:33:25.616Z,993.53
2022-10-10T03:34:25.597Z,993.50
2022-10-10T03:35:25.600Z,993.56
2022-10-10T03:36:25.587Z,993.59
2022-10-10T03:37:25.578Z,993.54
2022-10-10T03:38:25.592Z,993.52
2022-10-10T03:39:25.599Z,993.50
2022-10-10T03:40:25.561Z,993.54
2022-10-10T03:41:25.555Z,993.57
2022-10-10T03:42:25.535Z,993.56
2022-10-10T03:43:25.527Z,993.49
2022-10-10T03:44:25.532Z,993.55
2022-10-10T03:45:25.510Z,993.56
2022-10-10T03:46:25.514Z,993.54
2022-10-10T03:47:25.495Z,993.52
2022-10-10T03:48:25.500Z,993.51
2022-10-10T03:49:25.487Z,993.54
2022-10-10T03:50:25.476Z,993.57
2022-10-10T03:51:25.463Z,993.58
2022-10-10T03:52:25.463Z,993.62
2022-10-10T03:53:25.453Z,993.62
2022-10-10T03:54:25.443Z,993.60
2022-10-10T03:55:25.444Z,993.62
2022-10-10T03:56:25.435Z,993.63
2022-10-10T03:57:25.422Z,993.62
2022-10-10T03:58:25.414Z,993.58
2022-10-10T03:59:25.417Z,993.62
2022-10-10T04:00:25.402Z,993.61
2022-10-10T04:01:25.437Z,993.55
2022-10-10T04:02:25.385Z,993.60
2022-10-10T04:03:25.366Z,993.59
2022-10-10T04:04:25.365Z,993.55
2022-10-10T04:05:25.354Z,993.55
2022-10-10T04:06:25.365Z,993.57
2022-10-10T04:07:25.337Z,993.59
2022-10-10T04:08:25.329Z,993.49
2022-10-10T04:09:26.284Z,993.48
2022-10-10T04:10:25.328Z,993.64
2022-10-10T04:11:25.315Z,993.59
2022-10-10T04:12:25.301Z,993.61
2022-10-10T04:13:25.291Z,993.60
2022-10-10T04:14:25.284Z,993.62
2022-10-10T04:15:25.281Z,993.63
2022-10-10T04:16:25.272Z,993.63
2022-10-10T04:17:25.261Z,993.66
2022-10-10T04:18:25.249Z,993.60
2022-10-10T04:19:25.239Z,993.58
2022-10-10T04:20:25.241Z,993.57
2022-10-10T04:21:25.234Z,993.59
2022-10-10T04:22:25.320Z,993.53
2022-10-10T04:23:25.218Z,993.54
2022-10-10T04:24:25.204Z,993.57
2022-10-10T04:25:25.207Z,993.62
2022-10-10T04:26:25.242Z,993.55
2022-10-10T04:27:25.198Z,993.61
2022-10-10T04:28:25.215Z,993.54
2022-10-10T04:29:25.165Z,993.52
2022-10-10T04:30:25.161Z,993.59
2022-10-10T04:31:25.170Z,993.54
2022-10-10T04:32:25.148Z,993.55
2022-10-10T04:33:25.135Z,993.62
2022-10-10T04:34:25.131Z,993.56
2022-10-10T04:35:25.129Z,993.61
2022-10-10T04:36:25.113Z,993.59
2022-10-10T04:37:25.116Z,993.53
2022-10-10T04:38:25.111Z,993.58
2022-10-10T04:39:25.092Z,993.53
2022-10-10T04:40:26.837Z,993.57
2022-10-10T04:41:26.076Z,993.57
2022-10-10T04:42:25.075Z,993.52
2022-10-10T04:43:25.067Z,993.53
2022-10-10T04:44:25.059Z,993.51
2022-10-10T04:45:25.058Z,993.58
2022-10-10T04:46:25.034Z,993.61
2022-10-10T04:47:25.029Z,993.52
2022-10-10T04:48:25.027Z,993.57
2022-10-10T04:49:25.016Z,993.58
2022-10-10T04:50:25.037Z,993.58
2022-10-10T04:51:25.001Z,993.58
2022-10-10T04:52:24.996Z,993.51
2022-10-10T04:53:24.985Z,993.54
2022-10-10T04:54:25.872Z,993.60
2022-10-10T04:55:24.974Z,993.58
2022-10-10T04:56:24.961Z,993.57
2022-10-10T04:57:25.795Z,993.51
2022-10-10T04:58:24.958Z,993.52
2022-10-10T04:59:24.941Z,993.57
2022-10-10T05:00:24.937Z,993.55
2022-10-10T05:01:25.098Z,993.56
2022-10-10T05:02:24.912Z,993.48
2022-10-10T05:03:24.933Z,993.54
2022-10-10T05:04:24.904Z,993.55
2022-10-10T05:05:24.892Z,993.51
2022-10-10T05:06:24.877Z,993.51
2022-10-10T05:07:24.889Z,993.53
2022-10-10T05:08:24.867Z,993.53
2022-10-10T05:09:24.879Z,993.51
2022-10-10T05:10:26.457Z,993.48
2022-10-10T05:11:24.895Z,993.57
2022-10-10T05:12:24.864Z,993.52
2022-10-10T05:13:24.829Z,993.50
2022-10-10T05:14:24.836Z,993.52
2022-10-10T05:15:24.838Z,993.48
2022-10-10T05:16:24.809Z,993.48
2022-10-10T05:17:24.804Z,993.47
2022-10-10T05:18:24.787Z,993.51
2022-10-10T05:19:24.803Z,993.51
2022-10-10T05:20:24.770Z,993.51
2022-10-10T05:21:24.781Z,993.56
2022-10-10T05:22:24.791Z,993.53
2022-10-10T05:23:24.744Z,993.59
2022-10-10T05:24:24.746Z,993.55
2022-10-10T05:25:24.748Z,993.56
2022-10-10T05:26:24.735Z,993.58
2022-10-10T05:27:24.721Z,993.54
2022-10-10T05:28:24.752Z,993.58
2022-10-10T05:29:24.704Z,993.58
2022-10-10T05:30:24.712Z,993.51
2022-10-10T05:31:24.721Z,993.56
2022-10-10T05:32:24.676Z,993.57
2022-10-10T05:33:25.380Z,993.58
2022-10-10T05:34:24.660Z,993.56
2022-10-10T05:35:24.652Z,993.51
2022-10-10T05:36:24.662Z,993.54
2022-10-10T05:37:24.644Z,993.57
2022-10-10T05:38:24.630Z,993.57
2022-10-10T05:39:24.635Z,993.63
2022-10-10T05:40:24.617Z,993.58
2022-10-10T05:41:24.605Z,993.59
2022-10-10T05:42:24.611Z,993.58
2022-10-10T05:43:24.618Z,993.58
2022-10-10T05:44:24.591Z,993.54
2022-10-10T05:45:25.311Z,993.58
2022-10-10T05:46:25.631Z,993.55
2022-10-10T05:47:27.808Z,993.60
2022-10-10T05:48:25.555Z,993.50
2022-10-10T05:49:24.572Z,993.51
2022-10-10T05:50:24.546Z,993.56
2022-10-10T05:51:24.534Z,993.58
2022-10-10T05:52:24.522Z,993.59
2022-10-10T05:53:24.515Z,993.59
2022-10-10T05:54:24.510Z,993.59
2022-10-10T05:55:24.502Z,993.61
2022-10-10T05:56:24.488Z,993.62
2022-10-10T05:57:24.485Z,993.54
2022-10-10T05:58:24.483Z,993.56
2022-10-10T05:59:24.470Z,993.53
2022-10-10T06:00:24.461Z,993.56
2022-10-10T06:01:24.452Z,993.51
2022-10-10T06:02:24.490Z,993.52
2022-10-10T06:03:24.436Z,993.49
2022-10-10T06:04:24.437Z,993.51
2022-10-10T06:05:24.427Z,993.52
2022-10-10T06:06:24.416Z,993.49
2022-10-10T06:07:40.380Z,993.50
2022-10-10T06:08:26.394Z,993.48
2022-10-10T06:09:24.388Z,993.56
2022-10-10T06:10:25.397Z,993.51
2022-10-10T06:11:24.374Z,993.52
2022-10-10T06:12:24.366Z,993.58
2022-10-10T06:13:24.703Z,993.53
2022-10-10T06:14:25.358Z,993.58
2022-10-10T06:15:24.342Z,993.60
2022-10-10T06:16:24.339Z,993.69
2022-10-10T06:17:24.324Z,993.68
2022-10-10T06:18:24.318Z,993.66
2022-10-10T06:19:24.317Z,993.68
2022-10-10T06:20:24.401Z,993.63
2022-10-10T06:21:24.298Z,993.71
2022-10-10T06:22:24.284Z,993.67
2022-10-10T06:23:24.288Z,993.69
2022-10-10T06:24:24.348Z,993.73
2022-10-10T06:25:39.375Z,993.68
2022-10-10T06:26:26.257Z,993.71
2022-10-10T06:27:24.516Z,993.68
2022-10-10T06:28:24.267Z,993.68
2022-10-10T06:29:24.243Z,993.75
2022-10-10T06:30:24.234Z,993.72
2022-10-10T06:31:24.211Z,993.72
2022-10-10T06:32:24.203Z,993.70
2022-10-10T06:33:24.194Z,993.72
2022-10-10T06:34:24.181Z,993.74
2022-10-10T06:35:24.184Z,993.71
2022-10-10T06:36:24.171Z,993.66
2022-10-10T06:37:24.162Z,993.70
2022-10-10T06:38:24.148Z,993.69
2022-10-10T06:39:24.149Z,993.73
2022-10-10T06:40:24.158Z,993.69
2022-10-10T06:41:24.124Z,993.65
2022-10-10T06:42:24.943Z,993.74
2022-10-10T06:43:24.107Z,993.80
2022-10-10T06:44:24.132Z,993.75
2022-10-10T06:45:24.145Z,993.76
2022-10-10T06:46:24.093Z,993.74
2022-10-10T06:47:24.079Z,993.78
2022-10-10T06:48:24.077Z,993.78
2022-10-10T06:49:24.069Z,993.71
2022-10-10T06:50:24.054Z,993.72
2022-10-10T06:51:24.035Z,993.73
2022-10-10T06:52:25.047Z,993.73
2022-10-10T06:53:24.040Z,993.74
2022-10-10T06:54:24.022Z,993.67
2022-10-10T06:55:24.413Z,993.66
2022-10-10T06:56:27.644Z,993.66
2022-10-10T06:57:26.892Z,993.68
2022-10-10T06:58:25.298Z,993.73
2022-10-10T06:59:24.014Z,993.71
2022-10-10T07:00:24.144Z,993.69
2022-10-10T07:01:24.027Z,993.64
2022-10-10T07:02:23.984Z,993.64
2022-10-10T07:03:23.951Z,993.63
2022-10-10T07:04:23.957Z,993.64
2022-10-10T07:05:24.897Z,993.64
2022-10-10T07:06:23.940Z,993.63
2022-10-10T07:07:23.945Z,993.64
2022-10-10T07:08:23.915Z,993.54
2022-10-10T07:09:23.909Z,993.62
2022-10-10T07:10:23.898Z,993.64
2022-10-10T07:11:23.895Z,993.64
2022-10-10T07:12:23.881Z,993.66
2022-10-10T07:13:23.878Z,993.71
2022-10-10T07:14:23.865Z,993.69
2022-10-10T07:15:23.863Z,993.73
2022-10-10T07:16:23.851Z,993.71
2022-10-10T07:17:23.840Z,993.69
2022-10-10T07:18:23.831Z,993.70
2022-10-10T07:19:23.827Z,993.67
2022-10-10T07:20:23.886Z,993.74
2022-10-10T07:21:23.811Z,993.71
2022-10-10T07:22:23.798Z,993.77
2022-10-10T07:23:23.799Z,993.76
2022-10-10T07:24:23.821Z,993.77
2022-10-10T07:25:24.428Z,993.79
2022-10-10T07:26:24.785Z,993.72
2022-10-10T07:27:23.761Z,993.75
2022-10-10T07:28:23.793Z,993.72
2022-10-10T07:29:23.744Z,993.73
2022-10-10T07:30:24.937Z,993.74
2022-10-10T07:31:23.740Z,993.74
2022-10-10T07:32:24.349Z,993.84
2022-10-10T07:33:23.712Z,993.82
2022-10-10T07:34:23.702Z,993.77
2022-10-10T07:35:23.690Z,993.77
2022-10-10T07:36:23.704Z,993.76
2022-10-10T07:37:23.684Z,993.79
2022-10-10T07:38:23.664Z,993.82
2022-10-10T07:39:23.686Z,993.82
2022-10-10T07:40:23.695Z,993.82
2022-10-10T07:41:23.648Z,993.83
2022-10-10T07:42:23.636Z,993.84
2022-10-10T07:43:23.687Z,993.84
2022-10-10T07:44:23.625Z,993.86
2022-10-10T07:45:23.609Z,993.84
2022-10-10T07:46:23.603Z,993.83
2022-10-10T07:47:23.585Z,993.83
2022-10-10T07:48:23.601Z,993.82
2022-10-10T07:49:23.577Z,993.79
2022-10-10T07:50:23.593Z,993.78
2022-10-10T07:51:23.559Z,993.81
2022-10-10T07:52:23.586Z,993.85
2022-10-10T07:53:23.553Z,993.84
2022-10-10T07:54:23.551Z,993.83
2022-10-10T07:55:23.543Z,993.86
2022-10-10T07:56:23.527Z,993.87
2022-10-10T07:57:23.525Z,993.84
2022-10-10T07:58:23.523Z,993.84
2022-10-10T07:59:23.508Z,993.87
2022-10-10T08:00:23.560Z,993.81
2022-10-10T08:01:23.539Z,993.85
2022-10-10T08:02:23.475Z,993.86
2022-10-10T08:03:24.440Z,993.87
2022-10-10T08:04:23.488Z,993.81
2022-10-10T08:05:23.465Z,993.83
2022-10-10T08:06:23.455Z,993.83
2022-10-10T08:07:23.446Z,993.84
2022-10-10T08:08:23.462Z,993.79
2022-10-10T08:09:23.442Z,993.82
2022-10-10T08:10:23.479Z,993.81
2022-10-10T08:11:23.415Z,993.81
2022-10-10T08:12:23.482Z,993.76
2022-10-10T08:13:23.400Z,993.72
2022-10-10T08:14:23.435Z,993.72
2022-10-10T08:15:23.388Z,993.72
2022-10-10T08:16:23.368Z,993.70
2022-10-10T08:17:23.373Z,993.65
2022-10-10T08:18:23.408Z,993.66
2022-10-10T08:19:23.375Z,993.65
2022-10-10T08:20:23.346Z,993.66
2022-10-10T08:21:23.333Z,993.65
2022-10-10T08:22:23.328Z,993.71
2022-10-10T08:23:23.948Z,993.71
2022-10-10T08:24:23.316Z,993.69
2022-10-10T08:25:23.311Z,993.73
2022-10-10T08:26:23.297Z,993.73
2022-10-10T08:27:23.313Z,993.77
2022-10-10T08:28:23.323Z,993.79
2022-10-10T08:29:23.273Z,993.82
2022-10-10T08:30:23.272Z,993.74
2022-10-10T08:31:23.265Z,993.79
2022-10-10T08:32:23.253Z,993.78
2022-10-10T08:33:23.241Z,993.82
2022-10-10T08:34:23.240Z,993.78
2022-10-10T08:35:26.043Z,993.83
2022-10-10T08:36:23.211Z,993.78
2022-10-10T08:37:28.452Z,993.75
2022-10-10T08:38:25.208Z,993.77
2022-10-10T08:39:24.340Z,993.65
2022-10-10T08:40:23.213Z,993.75
2022-10-10T08:41:24.025Z,993.65
2022-10-10T08:42:23.176Z,993.68
2022-10-10T08:43:23.225Z,993.68
2022-10-10T08:44:23.160Z,993.65
2022-10-10T08:45:23.920Z,993.67
2022-10-10T08:46:23.205Z,993.59
2022-10-10T08:47:23.144Z,993.58
2022-10-10T08:48:55.881Z,993.59
2022-10-10T08:49:23.113Z,993.57
2022-10-10T08:50:23.103Z,993.56
2022-10-10T08:51:23.134Z,993.61
2022-10-10T08:52:23.101Z,993.60
2022-10-10T08:53:23.091Z,993.57
2022-10-10T08:54:23.078Z,993.62
2022-10-10T08:55:23.061Z,993.59
2022-10-10T08:56:23.071Z,993.60
2022-10-10T08:57:23.070Z,993.60
2022-10-10T08:58:23.037Z,993.58
2022-10-10T08:59:23.039Z,993.62
2022-10-10T09:00:27.906Z,993.59
2022-10-10T09:01:25.084Z,993.62
2022-10-10T09:02:29.639Z,993.58
2022-10-10T09:03:24.011Z,993.61
2022-10-10T09:04:23.039Z,993.57
2022-10-10T09:05:23.122Z,993.53
2022-10-10T09:06:22.975Z,993.52
2022-10-10T09:08:41.847Z,993.46
2022-10-10T09:09:41.849Z,993.44
2022-10-10T09:10:42.933Z,993.49
2022-10-10T09:13:27.818Z,993.47
2022-10-10T09:14:04.006Z,993.51
2022-10-10T09:16:14.178Z,993.50
2022-10-10T09:17:14.690Z,993.52
2022-10-10T09:18:21.637Z,993.57
2022-10-10T09:19:18.296Z,993.44
2022-10-10T09:20:21.280Z,993.48
2022-10-10T09:22:41.965Z,993.51
2022-10-10T09:23:41.121Z,993.49
2022-10-10T09:24:43.538Z,993.43
2022-10-10T09:25:43.062Z,993.47
2022-10-10T09:26:42.202Z,993.42
2022-10-10T09:27:42.198Z,993.44
2022-10-10T09:28:42.229Z,993.44
2022-10-10T09:29:42.980Z,993.39
2022-10-10T09:30:42.157Z,993.40
2022-10-10T09:31:42.151Z,993.46
2022-10-10T09:32:42.146Z,993.43
2022-10-10T09:33:42.133Z,993.41
2022-10-10T09:34:42.104Z,993.41
2022-10-10T09:35:43.081Z,993.45
2022-10-10T09:36:42.098Z,993.42
2022-10-10T09:37:47.484Z,993.38
2022-10-10T09:38:44.088Z,993.38
2022-10-10T09:39:42.087Z,993.42
2022-10-10T09:40:42.084Z,993.39
2022-10-10T09:41:42.058Z,993.44
2022-10-10T09:42:42.050Z,993.43
2022-10-10T09:43:44.981Z,993.39
2022-10-10T09:45:58.285Z,993.40
2022-10-10T09:46:52.813Z,993.40
2022-10-10T09:47:50.938Z,993.43
2022-10-10T09:48:51.742Z,993.41
2022-10-10T09:49:51.003Z,993.41
2022-10-10T09:50:51.838Z,993.41
2022-10-10T09:51:50.911Z,993.34
2022-10-10T09:52:50.882Z,993.39
2022-10-10T09:53:51.750Z,993.41
2022-10-10T09:54:51.848Z,993.35
2022-10-10T09:55:51.919Z,993.33
2022-10-10T09:56:50.874Z,993.37
2022-10-10T09:57:51.003Z,993.39
2022-10-10T09:58:56.326Z,993.34
2022-10-10T09:59:52.326Z,993.35
2022-10-10T10:00:51.880Z,993.34
2022-10-10T10:01:51.048Z,993.35
2022-10-10T10:02:53.122Z,993.30
2022-10-10T10:03:50.807Z,993.40
2022-10-10T10:04:53.830Z,993.38
2022-10-10T10:05:51.853Z,993.34
2022-10-10T10:06:52.322Z,993.36
2022-10-10T10:07:50.899Z,993.35
2022-10-10T10:08:52.891Z,993.21
2022-10-10T10:09:58.253Z,993.28
2022-10-10T10:10:52.307Z,993.29
2022-10-10T10:11:54.330Z,993.28
2022-10-10T21:29:34.372Z,996.98
2022-10-10T21:30:34.348Z,996.92
2022-10-10T21:31:35.440Z,996.93
2022-10-10T21:32:35.425Z,996.96
2022-10-10T21:33:35.435Z,996.97
2022-10-10T21:34:36.353Z,997.03
2022-10-10T21:35:35.419Z,997.08
2022-10-10T21:36:35.394Z,997.08
2022-10-10T21:37:35.396Z,997.04
2022-10-10T21:38:35.375Z,997.03
2022-10-10T21:39:35.393Z,997.12
2022-10-10T21:40:35.371Z,997.11
2022-10-10T21:41:35.369Z,997.13
2022-10-10T21:42:35.356Z,997.14
2022-10-10T21:43:35.342Z,997.19
2022-10-10T21:44:35.334Z,997.18
2022-10-10T21:45:37.211Z,997.16
2022-10-10T21:46:36.778Z,997.15
2022-10-10T21:47:36.314Z,997.14
2022-10-10T21:48:35.308Z,996.97
2022-10-10T21:49:35.315Z,997.12
2022-10-10T21:50:35.298Z,997.17
2022-10-10T21:51:35.285Z,997.14
2022-10-10T21:52:35.272Z,997.16
2022-10-10T21:53:35.263Z,997.18
2022-10-10T21:54:36.293Z,997.15
2022-10-10T21:55:35.249Z,997.17
2022-10-10T21:56:35.247Z,997.18
2022-10-10T21:57:35.234Z,997.16
2022-10-10T21:58:35.223Z,997.18
2022-10-10T21:59:35.230Z,997.20
2022-10-10T22:00:35.329Z,997.21
2022-10-10T22:01:35.203Z,997.21
2022-10-10T22:02:35.789Z,997.22
2022-10-10T22:03:35.185Z,997.20
2022-10-10T22:04:35.177Z,997.19
2022-10-10T22:05:35.169Z,997.24
2022-10-10T22:06:35.159Z,997.19
2022-10-10T22:07:35.154Z,997.20
2022-10-10T22:08:35.147Z,997.23
2022-10-10T22:09:35.151Z,997.27
2022-10-10T22:10:35.131Z,997.29
2022-10-10T22:11:35.111Z,997.28
2022-10-10T22:12:36.106Z,997.29
2022-10-10T22:13:35.108Z,997.34
2022-10-10T22:14:35.117Z,997.38
2022-10-10T22:15:35.088Z,997.36
2022-10-10T22:16:35.093Z,997.39
2022-10-10T22:17:35.076Z,997.37
2022-10-10T22:18:35.061Z,997.37
2022-10-10T22:19:35.070Z,997.41
2022-10-10T22:20:35.041Z,997.43
2022-10-10T22:21:35.209Z,997.42
2022-10-10T22:22:35.033Z,997.47
2022-10-10T22:23:35.052Z,997.43
2022-10-10T22:24:35.019Z,997.49
2022-10-10T22:25:35.007Z,997.55
2022-10-10T22:26:35.022Z,997.52
2022-10-10T22:27:34.995Z,997.55
2022-10-10T22:28:35.049Z,997.52
2022-10-10T22:29:34.977Z,997.59
2022-10-10T22:30:34.990Z,997.60
2022-10-10T22:31:34.979Z,997.63
2022-10-10T22:32:34.959Z,997.62
2022-10-10T22:33:34.952Z,997.60
2022-10-10T22:34:34.957Z,997.67
2022-10-10T22:35:34.932Z,997.69
2022-10-10T22:36:34.925Z,997.68
2022-10-10T22:37:34.926Z,997.72
2022-10-10T22:38:34.913Z,997.77
2022-10-10T22:39:34.904Z,997.78
2022-10-10T22:40:34.907Z,997.73
2022-10-10T22:41:34.882Z,997.70
2022-10-10T22:42:34.892Z,997.80
2022-10-10T22:43:34.871Z,997.77
2022-10-10T22:44:34.854Z,997.77
2022-10-10T22:45:34.854Z,997.84
2022-10-10T22:46:34.847Z,997.89
2022-10-10T22:47:34.830Z,997.96
2022-10-10T22:48:34.833Z,997.91
2022-10-10T22:49:34.827Z,997.91
2022-10-10T22:50:34.810Z,997.98
2022-10-10T22:51:34.810Z,997.98
2022-10-10T22:52:34.802Z,997.99
2022-10-10T22:53:34.785Z,997.92
2022-10-10T22:54:34.781Z,997.94
2022-10-10T22:55:34.773Z,997.93
2022-10-10T22:56:34.772Z,997.97
2022-10-10T22:57:34.756Z,998.03
2022-10-10T22:58:34.762Z,998.06
2022-10-10T22:59:34.739Z,998.08
2022-10-10T23:00:34.801Z,998.04
2022-10-10T23:01:34.731Z,998.14
2022-10-10T23:02:34.709Z,998.22
2022-10-10T23:03:34.742Z,998.15
2022-10-10T23:04:34.693Z,998.22
2022-10-10T23:05:34.693Z,998.23
2022-10-10T23:06:34.684Z,998.21
2022-10-10T23:07:34.667Z,998.21
2022-10-10T23:08:34.678Z,998.30
2022-10-10T23:09:34.666Z,998.28
2022-10-10T23:10:34.656Z,998.27
2022-10-10T23:11:34.645Z,998.28
2022-10-10T23:12:34.627Z,998.29
2022-10-10T23:13:34.624Z,998.32
2022-10-10T23:14:35.308Z,998.35
2022-10-10T23:15:34.609Z,998.34
2022-10-10T23:16:37.454Z,998.28
2022-10-10T23:17:35.594Z,998.24
2022-10-10T23:18:34.586Z,998.34
2022-10-10T23:19:34.590Z,998.29
2022-10-10T23:20:34.571Z,998.32
2022-10-10T23:21:34.569Z,998.32
2022-10-10T23:22:34.551Z,998.33
2022-10-10T23:23:34.546Z,998.31
2022-10-10T23:24:34.541Z,998.33
2022-10-10T23:25:35.315Z,998.37
2022-10-10T23:26:34.512Z,998.34
2022-10-10T23:27:34.509Z,998.45
2022-10-10T23:28:34.655Z,998.37
2022-10-10T23:29:34.528Z,998.48
2022-10-10T23:30:34.504Z,998.44
2022-10-10T23:31:34.477Z,998.50
2022-10-10T23:32:34.474Z,998.45
2022-10-10T23:33:36.853Z,998.47
2022-10-10T23:34:35.451Z,998.43
2022-10-10T23:35:34.448Z,998.44
2022-10-10T23:36:34.440Z,998.45
2022-10-10T23:37:34.437Z,998.41
2022-10-10T23:38:34.434Z,998.44
2022-10-10T23:39:34.418Z,998.48
2022-10-10T23:40:34.423Z,998.49
2022-10-10T23:41:34.394Z,998.41
2022-10-10T23:42:34.399Z,998.46
2022-10-10T23:43:34.389Z,998.49
2022-10-10T23:44:34.377Z,998.47
2022-10-10T23:45:34.371Z,998.52
2022-10-10T23:46:34.353Z,998.43
2022-10-10T23:47:34.355Z,998.43
2022-10-10T23:48:34.373Z,998.48
2022-10-10T23:49:34.343Z,998.49
2022-10-10T23:50:34.321Z,998.46
2022-10-10T23:51:34.312Z,998.46
2022-10-10T23:52:34.327Z,998.50